createdAt,value
2018-09-17T00:00:54.787Z,9.30
2018-09-17T00:03:22.986Z,8.20
2018-09-17T00:05:51.170Z,8.80
2018-09-17T00:08:19.358Z,8.20
2018-09-17T00:10:47.543Z,9.50
2018-09-17T00:13:15.825Z,8.67
2018-09-17T00:15:44.002Z,9.00
2018-09-17T00:18:12.186Z,8.87
2018-09-17T00:20:40.363Z,8.50
2018-09-17T00:23:08.547Z,8.67
2018-09-17T00:25:36.731Z,9.90
2018-09-17T00:28:05.170Z,9.47
2018-09-17T00:30:33.359Z,9.63
2018-09-17T00:33:01.575Z,9.17
2018-09-17T00:35:29.754Z,8.00
2018-09-17T00:37:57.975Z,8.77
2018-09-17T00:40:26.175Z,9.23
2018-09-17T00:42:54.385Z,8.80
2018-09-17T00:45:22.618Z,8.73
2018-09-17T00:47:50.838Z,9.37
2018-09-17T00:50:19.043Z,9.77
2018-09-17T00:52:47.264Z,9.87
2018-09-17T00:55:15.466Z,8.63
2018-09-17T00:57:43.706Z,8.87
2018-09-17T01:00:11.907Z,9.47
2018-09-17T01:02:40.110Z,9.13
2018-09-17T01:05:08.323Z,10.40
2018-09-17T01:07:36.523Z,9.37
2018-09-17T01:10:04.798Z,10.10
2018-09-17T01:12:32.999Z,8.70
2018-09-17T01:15:01.209Z,8.97
2018-09-17T01:17:29.415Z,9.63
2018-09-17T01:19:57.658Z,9.43
2018-09-17T01:22:25.861Z,9.50
2018-09-17T01:24:54.072Z,9.30
2018-09-17T01:27:22.274Z,10.23
2018-09-17T01:29:50.490Z,9.03
2018-09-17T01:32:18.694Z,8.73
2018-09-17T01:34:46.930Z,10.23
2018-09-17T01:37:15.130Z,9.97
2018-09-17T01:39:43.337Z,9.07
2018-09-17T01:42:11.522Z,9.27
2018-09-17T01:44:39.726Z,9.70
2018-09-17T01:47:07.977Z,9.13
2018-09-17T01:49:36.170Z,8.43
2018-09-17T01:52:04.366Z,10.47
2018-09-17T01:54:32.582Z,8.87
2018-09-17T01:57:00.761Z,9.53
2018-09-17T01:59:29.026Z,9.10
2018-09-17T02:01:57.214Z,9.63
2018-09-17T02:04:25.427Z,9.83
2018-09-17T02:06:53.607Z,8.80
2018-09-17T02:09:21.787Z,9.30
2018-09-17T02:11:49.987Z,10.07
2018-09-17T02:14:18.170Z,9.17
2018-09-17T02:16:46.366Z,9.07
2018-09-17T02:19:14.559Z,9.47
2018-09-17T02:21:42.808Z,9.63
2018-09-17T02:24:11.006Z,8.80
2018-09-17T02:26:39.514Z,8.70
2018-09-17T02:29:07.705Z,9.30
2018-09-17T02:31:35.903Z,9.33
2018-09-17T02:34:04.098Z,9.40
2018-09-17T02:36:32.290Z,7.93
2018-09-17T02:39:00.499Z,8.43
2018-09-17T02:41:28.688Z,7.80
2018-09-17T02:43:56.871Z,8.40
2018-09-17T02:46:25.079Z,8.70
2018-09-17T02:48:53.259Z,8.60
2018-09-17T02:51:21.466Z,8.70
2018-09-17T02:53:49.752Z,8.20
2018-09-17T02:56:17.946Z,8.83
2018-09-17T02:58:46.143Z,8.00
2018-09-17T03:01:14.326Z,8.47
2018-09-17T03:03:42.517Z,8.30
2018-09-17T03:06:10.715Z,8.30
2018-09-17T03:08:38.898Z,7.53
2018-09-17T03:11:07.096Z,8.20
2018-09-17T03:13:35.280Z,7.40
2018-09-17T03:16:03.485Z,6.83
2018-09-17T03:18:45.787Z,6.60
2018-09-17T03:21:14.022Z,6.90
2018-09-17T03:23:42.207Z,7.33
2018-09-17T03:26:10.392Z,6.43
2018-09-17T03:28:38.645Z,6.60
2018-09-17T03:31:06.847Z,6.90
2018-09-17T03:33:35.029Z,6.53
2018-09-17T03:36:03.211Z,7.57
2018-09-17T03:38:39.545Z,8.20
2018-09-17T03:41:08.595Z,7.20
2018-09-17T03:43:37.990Z,5.97
2018-09-17T03:46:06.239Z,7.23
2018-09-17T03:48:35.372Z,7.43
2018-09-17T03:51:04.256Z,6.10
2018-09-17T03:53:32.842Z,6.60
2018-09-17T03:56:01.050Z,6.57
2018-09-17T03:58:29.811Z,6.67
2018-09-17T04:00:58.483Z,6.37
2018-09-17T04:03:26.692Z,6.37
2018-09-17T04:05:54.886Z,6.77
2018-09-17T04:08:23.111Z,6.00
2018-09-17T04:10:51.306Z,6.77
2018-09-17T04:13:19.514Z,5.90
2018-09-17T04:15:47.720Z,6.40
2018-09-17T04:18:15.915Z,5.97
2018-09-17T04:20:44.109Z,6.03
2018-09-17T04:23:12.318Z,5.63
2018-09-17T04:25:40.524Z,6.27
2018-09-17T04:28:08.738Z,6.73
2018-09-17T04:30:36.931Z,6.33
2018-09-17T04:33:06.249Z,5.90
2018-09-17T04:35:34.402Z,6.43
2018-09-17T04:38:02.613Z,5.50
2018-09-17T04:40:30.793Z,6.10
2018-09-17T04:42:58.986Z,6.40
2018-09-17T04:45:27.175Z,5.67
2018-09-17T04:47:55.358Z,6.33
2018-09-17T04:50:23.526Z,6.93
2018-09-17T04:52:51.731Z,6.70
2018-09-17T04:55:19.902Z,6.90
2018-09-17T04:57:48.087Z,6.43
2018-09-17T05:00:16.521Z,6.93
2018-09-17T05:02:44.708Z,6.87
2018-09-17T05:05:12.911Z,6.77
2018-09-17T05:07:41.087Z,6.57
2018-09-17T05:10:09.320Z,6.30
2018-09-17T05:12:37.494Z,6.60
2018-09-17T05:15:06.048Z,6.43
2018-09-17T05:17:34.223Z,6.47
2018-09-17T05:20:02.453Z,5.40
2018-09-17T05:22:30.634Z,6.67
2018-09-17T05:24:58.843Z,6.20
2018-09-17T05:27:27.033Z,6.33
2018-09-17T05:29:55.220Z,5.90
2018-09-17T05:32:23.426Z,6.20
2018-09-17T05:34:51.638Z,6.50
2018-09-17T05:37:19.814Z,5.80
2018-09-17T05:39:48.028Z,6.10
2018-09-17T05:42:16.277Z,6.87
2018-09-17T05:44:44.466Z,7.20
2018-09-17T05:47:12.642Z,6.27
2018-09-17T05:49:40.829Z,6.00
2018-09-17T05:52:09.015Z,6.10
2018-09-17T05:54:37.203Z,6.47
2018-09-17T05:57:05.371Z,6.00
2018-09-17T05:59:33.591Z,6.00
2018-09-17T06:02:01.757Z,6.90
2018-09-17T06:04:29.940Z,6.30
2018-09-17T06:06:58.201Z,6.10
2018-09-17T06:09:26.314Z,6.40
2018-09-17T06:11:54.583Z,6.57
2018-09-17T06:14:22.735Z,6.07
2018-09-17T06:16:50.877Z,6.67
2018-09-17T06:19:19.080Z,6.10
2018-09-17T06:21:47.262Z,6.70
2018-09-17T06:24:15.459Z,7.57
2018-09-17T06:26:43.650Z,7.37
2018-09-17T06:29:11.832Z,6.80
2018-09-17T06:31:40.014Z,6.80
2018-09-17T06:34:08.287Z,7.83
2018-09-17T06:36:36.485Z,8.40
2018-09-17T06:39:06.414Z,8.67
2018-09-17T06:41:34.643Z,8.50
2018-09-17T06:44:02.837Z,10.20
2018-09-17T06:46:31.045Z,9.47
2018-09-17T06:48:59.242Z,11.27
2018-09-17T06:51:27.548Z,12.00
2018-09-17T06:53:56.107Z,10.77
2018-09-17T06:56:24.347Z,9.67
2018-09-17T06:58:52.542Z,9.33
2018-09-17T07:01:20.754Z,9.30
2018-09-17T07:03:49.027Z,11.03
2018-09-17T07:06:17.247Z,11.13
2018-09-17T07:08:45.577Z,10.10
2018-09-17T07:11:13.782Z,9.40
2018-09-17T07:13:42.010Z,9.50
2018-09-17T07:16:10.408Z,9.83
2018-09-17T07:18:39.168Z,9.47
2018-09-17T07:21:07.378Z,10.30
2018-09-17T07:23:36.161Z,10.53
2018-09-17T07:26:04.642Z,10.70
2018-09-17T07:28:32.847Z,10.00
2018-09-17T07:31:01.086Z,11.93
2018-09-17T07:33:29.277Z,13.00
2018-09-17T07:35:57.486Z,12.53
2018-09-17T07:38:26.218Z,12.30
2018-09-17T07:40:54.443Z,12.80
2018-09-17T07:43:22.639Z,13.07
2018-09-17T07:45:50.839Z,13.83
2018-09-17T07:48:19.018Z,12.90
2018-09-17T07:50:47.215Z,12.57
2018-09-17T07:53:15.533Z,12.47
2018-09-17T07:55:43.680Z,12.37
2018-09-17T07:58:11.861Z,11.93
2018-09-17T08:00:40.046Z,12.93
2018-09-17T08:03:08.245Z,11.90
2018-09-17T08:05:36.478Z,13.33
2018-09-17T08:08:04.629Z,12.63
2018-09-17T08:10:32.809Z,12.73
2018-09-17T08:13:01.028Z,11.60
2018-09-17T08:15:29.215Z,11.80
2018-09-17T08:17:57.406Z,11.03
2018-09-17T08:20:25.603Z,11.37
2018-09-17T08:22:53.797Z,10.30
2018-09-17T08:25:21.985Z,11.87
2018-09-17T08:27:50.205Z,9.80
2018-09-17T08:30:18.380Z,9.77
2018-09-17T08:32:46.583Z,10.70
2018-09-17T08:35:14.766Z,10.87
2018-09-17T08:37:42.957Z,9.87
2018-09-17T08:40:11.150Z,10.47
2018-09-17T08:42:39.337Z,9.93
2018-09-17T08:45:07.532Z,9.00
2018-09-17T08:47:35.734Z,10.33
2018-09-17T08:50:03.935Z,9.80
2018-09-17T08:52:32.122Z,9.50
2018-09-17T08:55:05.638Z,9.50
2018-09-17T08:57:39.410Z,9.13
2018-09-17T09:00:14.176Z,8.80
2018-09-17T09:02:49.578Z,8.63
2018-09-17T09:05:23.292Z,9.47
2018-09-17T09:07:52.237Z,8.97
2018-09-17T09:10:26.218Z,8.87
2018-09-17T09:14:00.306Z,9.60
2018-09-17T09:16:28.495Z,9.67
2018-09-17T09:18:56.690Z,9.27
2018-09-17T09:21:24.883Z,8.57
2018-09-17T09:23:53.104Z,9.10
2018-09-17T09:26:21.353Z,8.47
2018-09-17T09:28:49.518Z,8.07
2018-09-17T09:31:17.710Z,8.40
2018-09-17T09:33:45.923Z,8.40
2018-09-17T09:36:14.121Z,8.10
2018-09-17T09:38:42.327Z,8.33
2018-09-17T09:41:10.509Z,8.53
2018-09-17T09:43:38.715Z,8.10
2018-09-17T09:46:06.906Z,7.63
2018-09-17T09:48:35.104Z,7.23
2018-09-17T09:51:03.286Z,8.27
2018-09-17T09:53:31.474Z,8.03
2018-09-17T09:55:59.645Z,7.67
2018-09-17T09:58:27.842Z,7.63
2018-09-17T10:01:01.535Z,6.40
2018-09-17T10:03:29.767Z,7.00
2018-09-17T10:05:58.262Z,6.70
2018-09-17T10:08:26.452Z,6.90
2018-09-17T10:10:59.974Z,6.70
2018-09-17T10:13:33.582Z,5.87
2018-09-17T10:16:07.257Z,6.50
2018-09-17T10:18:40.817Z,6.70
2018-09-17T10:21:08.990Z,5.77
2018-09-17T10:23:37.178Z,5.93
2018-09-17T10:26:05.359Z,6.20
2018-09-17T10:28:33.546Z,8.50
2018-09-17T10:31:01.730Z,8.77
2018-09-17T10:33:29.914Z,6.20
2018-09-17T10:35:58.090Z,5.00
2018-09-17T10:38:26.346Z,5.80
2018-09-17T10:40:54.530Z,5.23
2018-09-17T10:43:22.710Z,5.80
2018-09-17T10:45:50.895Z,5.10
2018-09-17T10:48:19.070Z,5.43
2018-09-17T10:50:47.257Z,5.07
2018-09-17T10:53:15.435Z,5.00
2018-09-17T10:55:43.618Z,5.83
2018-09-17T10:58:11.794Z,5.00
2018-09-17T11:00:39.987Z,5.23
2018-09-17T11:03:08.158Z,5.97
2018-09-17T11:05:36.350Z,5.00
2018-09-17T11:08:04.526Z,5.30
2018-09-17T11:10:32.728Z,4.60
2018-09-17T11:13:00.906Z,4.80
2018-09-17T11:15:34.494Z,5.23
2018-09-17T11:18:02.680Z,5.00
2018-09-17T11:20:30.858Z,5.03
2018-09-17T11:22:59.039Z,5.00
2018-09-17T11:25:27.236Z,5.40
2018-09-17T11:27:55.413Z,5.20
2018-09-17T11:30:23.603Z,4.80
2018-09-17T11:32:51.790Z,4.77
2018-09-17T11:35:19.978Z,5.17
2018-09-17T11:37:48.363Z,4.80
2018-09-17T11:40:16.594Z,4.80
2018-09-17T11:42:44.835Z,5.10
2018-09-17T11:45:13.035Z,4.60
2018-09-17T11:47:41.253Z,5.10
2018-09-17T11:50:09.455Z,5.30
2018-09-17T11:55:12.311Z,4.40
2018-09-17T11:57:40.526Z,4.40
2018-09-17T12:00:08.998Z,4.63
2018-09-17T12:02:37.796Z,4.83
2018-09-17T12:05:08.305Z,5.13
2018-09-17T12:07:42.869Z,5.37
2018-09-17T12:10:11.819Z,4.27
2018-09-17T12:12:40.313Z,4.33
2018-09-17T12:15:08.934Z,4.90
2018-09-17T12:17:37.195Z,4.50
2018-09-17T12:20:05.600Z,4.60
2018-09-17T12:22:33.794Z,4.97
2018-09-17T12:25:01.986Z,4.63
2018-09-17T12:27:30.194Z,4.60
2018-09-17T12:29:58.391Z,4.87
2018-09-17T12:32:26.599Z,4.40
2018-09-17T12:34:54.843Z,4.27
2018-09-17T12:37:23.050Z,4.37
2018-09-17T12:39:51.254Z,4.97
2018-09-17T12:42:19.469Z,4.70
2018-09-17T12:44:47.670Z,4.30
2018-09-17T12:47:15.866Z,4.13
2018-09-17T12:49:44.066Z,4.10
2018-09-17T12:52:12.286Z,3.97
2018-09-17T12:54:40.491Z,4.33
2018-09-17T12:57:08.727Z,4.73
2018-09-17T12:59:36.928Z,3.90
2018-09-17T13:02:05.135Z,4.00
2018-09-17T13:04:33.334Z,4.10
2018-09-17T13:07:01.536Z,4.17
2018-09-17T13:09:29.734Z,4.40
2018-09-17T13:11:57.941Z,3.27
2018-09-17T13:14:26.140Z,3.63
2018-09-17T13:16:54.350Z,3.87
2018-09-17T13:19:22.551Z,4.17
2018-09-17T13:21:50.764Z,3.40
2018-09-17T13:24:18.951Z,3.73
2018-09-17T13:26:47.151Z,3.60
2018-09-17T13:29:15.359Z,3.00
2018-09-17T13:31:43.621Z,3.57
2018-09-17T13:34:11.778Z,3.63
2018-09-17T13:36:40.005Z,3.40
2018-09-17T13:39:08.206Z,3.53
2018-09-17T13:41:36.402Z,3.30
2018-09-17T13:44:04.639Z,3.10
2018-09-17T13:46:32.829Z,3.53
2018-09-17T13:49:01.026Z,3.50
2018-09-17T13:51:29.237Z,3.77
2018-09-17T13:53:57.439Z,3.07
2018-09-17T13:56:25.631Z,3.40
2018-09-17T13:58:53.840Z,3.67
2018-09-17T14:01:22.094Z,3.30
2018-09-17T14:03:50.366Z,3.80
2018-09-17T14:06:18.558Z,3.23
2018-09-17T14:08:46.767Z,3.33
2018-09-17T14:11:14.974Z,3.37
2018-09-17T14:13:43.183Z,3.50
2018-09-17T14:16:11.401Z,3.87
2018-09-17T14:18:39.866Z,3.90
2018-09-17T14:21:08.448Z,3.80
2018-09-17T14:23:36.726Z,4.17
2018-09-17T14:26:04.965Z,3.87
2018-09-17T14:28:33.125Z,3.87
2018-09-17T14:31:01.319Z,3.90
2018-09-17T14:33:35.012Z,3.97
2018-09-17T14:36:03.201Z,3.60
2018-09-17T14:38:31.440Z,3.60
2018-09-17T14:40:59.668Z,3.87
2018-09-17T14:43:27.902Z,3.77
2018-09-17T14:45:56.318Z,3.57
2018-09-17T14:48:24.546Z,3.60
2018-09-17T14:50:52.979Z,3.80
2018-09-17T14:53:21.244Z,3.50
2018-09-17T14:55:49.358Z,3.80
2018-09-17T14:58:17.644Z,3.70
2018-09-17T15:00:45.780Z,3.80
2018-09-17T15:03:13.971Z,3.50
2018-09-17T15:05:42.223Z,3.77
2018-09-17T15:08:10.572Z,3.60
2018-09-17T15:10:38.690Z,4.00
2018-09-17T15:13:06.896Z,3.60
2018-09-17T15:15:39.324Z,3.80
2018-09-17T15:18:07.502Z,4.00
2018-09-17T15:20:35.708Z,4.07
2018-09-17T15:23:03.896Z,3.60
2018-09-17T15:25:32.099Z,3.57
2018-09-17T15:28:00.320Z,3.70
2018-09-17T15:30:28.450Z,3.00
2018-09-17T15:32:56.643Z,3.50
2018-09-17T15:35:24.835Z,3.70
2018-09-17T15:37:53.017Z,3.67
2018-09-17T15:40:21.372Z,3.13
2018-09-17T15:42:49.466Z,3.40
2018-09-17T15:45:17.709Z,3.40
2018-09-17T15:47:45.918Z,3.53
2018-09-17T15:50:14.215Z,4.27
2018-09-17T15:52:42.309Z,3.73
2018-09-17T15:55:10.499Z,4.07
2018-09-17T15:57:38.698Z,3.93
2018-09-17T16:00:07.142Z,3.90
2018-09-17T16:02:35.505Z,3.43
2018-09-17T16:05:03.733Z,3.83
2018-09-17T16:07:31.918Z,3.60
2018-09-17T16:10:00.130Z,3.23
2018-09-17T16:12:28.309Z,3.63
2018-09-17T16:14:56.506Z,3.27
2018-09-17T16:17:24.674Z,3.40
2018-09-17T16:19:52.917Z,3.60
2018-09-17T16:22:21.064Z,4.13
2018-09-17T16:24:49.278Z,3.93
2018-09-17T16:27:17.462Z,5.03
2018-09-17T16:29:45.645Z,4.17
2018-09-17T16:32:13.831Z,3.87
2018-09-17T16:34:48.898Z,4.13
2018-09-17T16:37:17.079Z,4.20
2018-09-17T16:39:45.287Z,4.17
2018-09-17T16:42:13.508Z,3.80
2018-09-17T16:44:41.718Z,3.73
2018-09-17T16:47:09.972Z,3.77
2018-09-17T16:49:38.143Z,3.73
2018-09-17T16:52:06.362Z,4.37
2018-09-17T16:54:34.558Z,3.40
2018-09-17T16:57:02.782Z,4.37
2018-09-17T16:59:30.982Z,3.40
2018-09-17T17:01:59.204Z,3.80
2018-09-17T17:04:27.418Z,3.70
2018-09-17T17:06:55.623Z,3.83
2018-09-17T17:09:23.823Z,3.80
2018-09-17T17:11:52.681Z,3.80
2018-09-17T17:14:20.823Z,3.90
2018-09-17T17:16:49.741Z,3.77
2018-09-17T17:19:18.003Z,4.07
2018-09-17T17:21:46.314Z,4.60
2018-09-17T17:24:14.518Z,3.67
2018-09-17T17:26:42.678Z,4.03
2018-09-17T17:29:10.887Z,3.70
2018-09-17T17:31:39.117Z,3.80
2018-09-17T17:34:07.391Z,3.70
2018-09-17T17:36:35.526Z,4.03
2018-09-17T17:39:04.994Z,4.30
2018-09-17T17:41:33.210Z,5.83
2018-09-17T17:44:01.402Z,5.10
2018-09-17T17:46:29.669Z,5.03
2018-09-17T17:48:58.322Z,5.20
2018-09-17T17:51:26.522Z,4.53
2018-09-17T17:53:54.732Z,4.30
2018-09-17T17:56:22.938Z,5.43
2018-09-17T17:58:51.146Z,4.33
2018-09-17T18:01:19.486Z,5.30
2018-09-17T18:03:47.587Z,4.70
2018-09-17T18:06:15.779Z,4.67
2018-09-17T18:08:43.989Z,3.97
2018-09-17T18:11:12.186Z,4.07
2018-09-17T18:13:40.406Z,3.80
2018-09-17T18:16:08.640Z,4.00
2018-09-17T18:18:36.822Z,3.77
2018-09-17T18:21:05.298Z,3.73
2018-09-17T18:23:33.527Z,3.73
2018-09-17T18:26:01.726Z,3.87
2018-09-17T18:28:29.954Z,4.20
2018-09-17T18:30:58.172Z,4.13
2018-09-17T18:33:26.426Z,4.20
2018-09-17T18:35:54.688Z,4.33
2018-09-17T18:38:22.867Z,4.50
2018-09-17T18:40:51.062Z,4.40
2018-09-17T18:43:19.243Z,4.93
2018-09-17T18:45:47.439Z,4.60
2018-09-17T18:48:15.705Z,4.67
2018-09-17T18:50:43.877Z,5.20
2018-09-17T18:53:12.044Z,4.40
2018-09-17T18:55:40.214Z,4.80
2018-09-17T18:58:08.406Z,4.87
2018-09-17T19:00:36.582Z,4.50
2018-09-17T19:03:04.839Z,4.77
2018-09-17T19:05:33.106Z,5.00
2018-09-17T19:08:01.402Z,4.43
2018-09-17T19:10:29.582Z,4.60
2018-09-17T19:12:57.770Z,4.20
2018-09-17T19:15:31.471Z,4.10
2018-09-17T19:18:05.224Z,4.40
2018-09-17T19:20:33.541Z,4.27
2018-09-17T19:23:07.098Z,4.80
2018-09-17T19:25:35.302Z,5.10
2018-09-17T19:28:09.116Z,4.63
2018-09-17T19:30:37.251Z,4.87
2018-09-17T19:33:05.527Z,4.73
2018-09-17T19:35:33.718Z,5.03
2018-09-17T19:39:05.088Z,4.37
2018-09-17T19:41:33.273Z,5.10
2018-09-17T19:44:01.526Z,5.60
2018-09-17T19:46:29.658Z,4.40
2018-09-17T19:48:57.850Z,4.50
2018-09-17T19:51:31.404Z,4.40
2018-09-17T19:53:59.670Z,4.97
2018-09-17T19:56:27.870Z,5.10
2018-09-17T19:59:01.623Z,6.30
2018-09-17T20:01:30.179Z,4.23
2018-09-17T20:04:02.671Z,4.33
2018-09-17T20:06:30.870Z,4.13
2018-09-17T20:08:59.089Z,4.73
2018-09-17T20:11:27.327Z,4.73
2018-09-17T20:13:56.054Z,5.50
2018-09-17T20:16:24.438Z,4.67
2018-09-17T20:18:52.652Z,4.60
2018-09-17T20:21:20.849Z,4.47
2018-09-17T20:23:49.161Z,4.63
2018-09-17T20:26:17.370Z,4.50
2018-09-17T20:28:45.582Z,5.10
2018-09-17T20:31:13.814Z,4.60
2018-09-17T20:33:42.013Z,4.40
2018-09-17T20:36:10.220Z,5.10
2018-09-17T20:38:38.528Z,4.43
2018-09-17T20:41:06.737Z,4.60
2018-09-17T20:43:34.910Z,5.30
2018-09-17T20:46:03.544Z,4.23
2018-09-17T20:48:31.734Z,4.57
2018-09-17T20:50:59.975Z,3.83
2018-09-17T20:53:28.280Z,4.40
2018-09-17T20:55:56.578Z,4.43
2018-09-17T20:58:24.917Z,4.57
2018-09-17T21:00:53.178Z,4.47
2018-09-17T21:03:21.367Z,3.70
2018-09-17T21:05:49.586Z,4.77
2018-09-17T21:08:18.143Z,3.60
2018-09-17T21:10:46.337Z,3.77
2018-09-17T21:13:14.516Z,4.10
2018-09-17T21:15:42.762Z,4.27
2018-09-17T21:18:10.906Z,3.90
2018-09-17T21:20:39.096Z,4.10
2018-09-17T21:23:07.279Z,3.27
2018-09-17T21:25:35.466Z,4.57
2018-09-17T21:28:03.704Z,5.00
2018-09-17T21:30:31.850Z,4.20
2018-09-17T21:33:00.027Z,3.80
2018-09-17T21:35:28.226Z,4.23
2018-09-17T21:37:56.417Z,4.07
2018-09-17T21:40:24.647Z,3.90
2018-09-17T21:42:52.873Z,4.67
2018-09-17T21:45:21.006Z,4.27
2018-09-17T21:47:49.192Z,3.80
2018-09-17T21:50:18.410Z,4.10
2018-09-17T21:52:46.603Z,3.90
2018-09-17T21:55:14.821Z,3.83
2018-09-17T21:57:43.023Z,4.40
2018-09-17T22:00:11.442Z,4.30
2018-09-17T22:02:39.654Z,4.30
2018-09-17T22:05:07.940Z,4.07
2018-09-17T22:07:36.111Z,4.33
2018-09-17T22:10:04.307Z,4.70
2018-09-17T22:12:32.482Z,4.87
2018-09-17T22:15:00.663Z,4.87
2018-09-17T22:17:28.847Z,4.30
2018-09-17T22:19:57.031Z,5.10
2018-09-17T22:22:25.214Z,4.43
2018-09-17T22:24:53.394Z,4.30
2018-09-17T22:27:21.590Z,4.70
2018-09-17T22:29:49.758Z,5.00
2018-09-17T22:32:17.950Z,5.10
2018-09-17T22:34:46.152Z,4.70
2018-09-17T22:37:14.344Z,4.70
2018-09-17T22:39:42.560Z,4.63
2018-09-17T22:42:10.798Z,5.10
2018-09-17T22:44:39.790Z,4.80
2018-09-17T22:47:07.998Z,5.20
2018-09-17T22:49:36.191Z,5.33
2018-09-17T22:52:04.394Z,5.27
2018-09-17T22:54:32.586Z,4.60
2018-09-17T22:57:00.790Z,4.80
2018-09-17T22:59:28.979Z,5.17
2018-09-17T23:01:57.180Z,5.10
2018-09-17T23:04:25.384Z,5.17
2018-09-17T23:06:53.629Z,5.07
2018-09-17T23:09:21.782Z,5.30
2018-09-17T23:11:49.992Z,4.50
2018-09-17T23:14:18.186Z,5.57
2018-09-17T23:16:46.414Z,5.40
2018-09-17T23:19:14.611Z,5.00
2018-09-17T23:21:42.807Z,5.90
2018-09-17T23:24:11.029Z,5.20
2018-09-17T23:26:39.299Z,5.23
2018-09-17T23:29:07.508Z,5.23
2018-09-17T23:31:35.697Z,4.90
2018-09-17T23:34:03.899Z,5.33
2018-09-17T23:36:32.095Z,5.37
2018-09-17T23:39:00.335Z,4.87
2018-09-17T23:41:28.511Z,5.47
2018-09-17T23:43:56.702Z,5.07
2018-09-17T23:46:24.876Z,5.87
2018-09-17T23:48:53.063Z,5.60
2018-09-17T23:51:21.239Z,5.90
2018-09-17T23:53:49.422Z,5.60
2018-09-17T23:56:17.603Z,4.90
2018-09-17T23:58:45.804Z,5.80
